sensor_id;sensor_type;location;lat;lon;timestamp;P1;durP1;ratioP1;P2;durP2;ratioP2
51556;SDS011;38766;53.194;5.532;2023-08-06T00:00:08;8.43;;;6.25;;
51556;SDS011;38766;53.194;5.532;2023-08-06T00:02:34;7.15;;;6.05;;
51556;SDS011;38766;53.194;5.532;2023-08-06T00:05:00;9.18;;;6.00;;
51556;SDS011;38766;53.194;5.532;2023-08-06T00:07:26;7.43;;;6.25;;
51556;SDS011;38766;53.194;5.532;2023-08-06T00:09:51;8.85;;;6.68;;
51556;SDS011;38766;53.194;5.532;2023-08-06T00:12:17;8.13;;;6.05;;
51556;SDS011;38766;53.194;5.532;2023-08-06T00:14:43;7.90;;;6.32;;
51556;SDS011;38766;53.194;5.532;2023-08-06T00:17:09;8.68;;;6.70;;
51556;SDS011;38766;53.194;5.532;2023-08-06T00:19:34;9.15;;;6.07;;
51556;SDS011;38766;53.194;5.532;2023-08-06T00:22:00;8.80;;;6.28;;
51556;SDS011;38766;53.194;5.532;2023-08-06T00:24:27;6.93;;;6.22;;
51556;SDS011;38766;53.194;5.532;2023-08-06T00:26:53;8.52;;;6.10;;
51556;SDS011;38766;53.194;5.532;2023-08-06T00:29:18;7.43;;;5.97;;
51556;SDS011;38766;53.194;5.532;2023-08-06T00:31:44;9.02;;;5.93;;
51556;SDS011;38766;53.194;5.532;2023-08-06T00:34:10;10.30;;;6.18;;
51556;SDS011;38766;53.194;5.532;2023-08-06T00:36:35;7.82;;;6.05;;
51556;SDS011;38766;53.194;5.532;2023-08-06T00:39:01;7.95;;;6.32;;
51556;SDS011;38766;53.194;5.532;2023-08-06T00:41:27;9.63;;;6.47;;
51556;SDS011;38766;53.194;5.532;2023-08-06T00:43:53;8.43;;;6.50;;
51556;SDS011;38766;53.194;5.532;2023-08-06T00:46:19;6.85;;;5.97;;
51556;SDS011;38766;53.194;5.532;2023-08-06T00:48:45;8.70;;;6.68;;
51556;SDS011;38766;53.194;5.532;2023-08-06T00:51:11;7.80;;;6.57;;
51556;SDS011;38766;53.194;5.532;2023-08-06T00:53:38;10.63;;;6.90;;
51556;SDS011;38766;53.194;5.532;2023-08-06T00:56:04;8.40;;;6.93;;
51556;SDS011;38766;53.194;5.532;2023-08-06T00:58:31;8.60;;;6.85;;
51556;SDS011;38766;53.194;5.532;2023-08-06T01:00:57;10.35;;;6.68;;
51556;SDS011;38766;53.194;5.532;2023-08-06T01:03:23;9.25;;;6.65;;
51556;SDS011;38766;53.194;5.532;2023-08-06T01:05:50;10.77;;;7.38;;
51556;SDS011;38766;53.194;5.532;2023-08-06T01:13:45;10.07;;;7.53;;
51556;SDS011;38766;53.194;5.532;2023-08-06T01:16:18;10.30;;;7.55;;
51556;SDS011;38766;53.194;5.532;2023-08-06T01:18:46;11.93;;;8.27;;
51556;SDS011;38766;53.194;5.532;2023-08-06T01:21:14;10.38;;;8.80;;
51556;SDS011;38766;53.194;5.532;2023-08-06T01:23:41;14.68;;;8.27;;
51556;SDS011;38766;53.194;5.532;2023-08-06T01:32:11;11.80;;;9.82;;
51556;SDS011;38766;53.194;5.532;2023-08-06T01:34:39;12.95;;;10.38;;
51556;SDS011;38766;53.194;5.532;2023-08-06T01:37:06;12.15;;;10.40;;
51556;SDS011;38766;53.194;5.532;2023-08-06T01:39:33;15.13;;;10.00;;
51556;SDS011;38766;53.194;5.532;2023-08-06T01:41:59;13.60;;;10.00;;
51556;SDS011;38766;53.194;5.532;2023-08-06T01:44:24;12.68;;;10.82;;
51556;SDS011;38766;53.194;5.532;2023-08-06T01:46:50;15.27;;;10.70;;
51556;SDS011;38766;53.194;5.532;2023-08-06T01:49:16;15.32;;;9.95;;
51556;SDS011;38766;53.194;5.532;2023-08-06T01:51:41;12.90;;;9.23;;
51556;SDS011;38766;53.194;5.532;2023-08-06T01:54:07;13.80;;;11.00;;
51556;SDS011;38766;53.194;5.532;2023-08-06T01:56:33;13.75;;;10.40;;
51556;SDS011;38766;53.194;5.532;2023-08-06T01:58:58;18.13;;;10.55;;
51556;SDS011;38766;53.194;5.532;2023-08-06T02:01:24;12.68;;;10.15;;
51556;SDS011;38766;53.194;5.532;2023-08-06T02:03:50;12.30;;;10.90;;
51556;SDS011;38766;53.194;5.532;2023-08-06T02:06:15;17.90;;;11.25;;
51556;SDS011;38766;53.194;5.532;2023-08-06T02:08:41;17.00;;;11.45;;
51556;SDS011;38766;53.194;5.532;2023-08-06T02:11:07;13.85;;;11.05;;
51556;SDS011;38766;53.194;5.532;2023-08-06T02:13:32;14.38;;;10.77;;
51556;SDS011;38766;53.194;5.532;2023-08-06T02:15:58;12.98;;;11.15;;
51556;SDS011;38766;53.194;5.532;2023-08-06T02:18:24;13.05;;;10.20;;
51556;SDS011;38766;53.194;5.532;2023-08-06T02:20:59;12.68;;;10.75;;
51556;SDS011;38766;53.194;5.532;2023-08-06T02:23:25;14.57;;;11.25;;
51556;SDS011;38766;53.194;5.532;2023-08-06T02:28:23;13.88;;;11.45;;
51556;SDS011;38766;53.194;5.532;2023-08-06T02:30:50;12.07;;;10.13;;
51556;SDS011;38766;53.194;5.532;2023-08-06T02:33:16;15.20;;;10.98;;
51556;SDS011;38766;53.194;5.532;2023-08-06T02:35:41;13.60;;;10.35;;
51556;SDS011;38766;53.194;5.532;2023-08-06T02:38:07;15.43;;;10.63;;
51556;SDS011;38766;53.194;5.532;2023-08-06T02:40:32;13.88;;;10.30;;
51556;SDS011;38766;53.194;5.532;2023-08-06T02:42:58;13.13;;;10.73;;
51556;SDS011;38766;53.194;5.532;2023-08-06T02:45:24;17.27;;;10.98;;
51556;SDS011;38766;53.194;5.532;2023-08-06T02:47:49;14.98;;;10.48;;
51556;SDS011;38766;53.194;5.532;2023-08-06T02:50:15;15.07;;;10.38;;
51556;SDS011;38766;53.194;5.532;2023-08-06T02:52:40;15.52;;;10.20;;
51556;SDS011;38766;53.194;5.532;2023-08-06T02:55:06;15.73;;;10.75;;
51556;SDS011;38766;53.194;5.532;2023-08-06T02:57:32;14.98;;;9.73;;
51556;SDS011;38766;53.194;5.532;2023-08-06T02:59:57;14.70;;;10.27;;
51556;SDS011;38766;53.194;5.532;2023-08-06T03:02:23;13.68;;;11.27;;
51556;SDS011;38766;53.194;5.532;2023-08-06T03:04:49;13.57;;;11.15;;
51556;SDS011;38766;53.194;5.532;2023-08-06T03:07:14;14.30;;;10.38;;
51556;SDS011;38766;53.194;5.532;2023-08-06T03:09:40;13.50;;;9.90;;
51556;SDS011;38766;53.194;5.532;2023-08-06T03:12:06;14.27;;;10.23;;
51556;SDS011;38766;53.194;5.532;2023-08-06T03:14:32;12.77;;;10.48;;
51556;SDS011;38766;53.194;5.532;2023-08-06T03:16:57;13.60;;;11.07;;
51556;SDS011;38766;53.194;5.532;2023-08-06T03:19:23;14.68;;;11.60;;
51556;SDS011;38766;53.194;5.532;2023-08-06T03:21:49;13.43;;;10.25;;
51556;SDS011;38766;53.194;5.532;2023-08-06T03:24:14;14.50;;;10.60;;
51556;SDS011;38766;53.194;5.532;2023-08-06T03:26:40;18.17;;;11.60;;
51556;SDS011;38766;53.194;5.532;2023-08-06T03:29:05;16.55;;;11.00;;
51556;SDS011;38766;53.194;5.532;2023-08-06T03:31:31;15.88;;;11.27;;
51556;SDS011;38766;53.194;5.532;2023-08-06T03:33:56;14.60;;;11.32;;
51556;SDS011;38766;53.194;5.532;2023-08-06T03:36:22;13.40;;;10.02;;
51556;SDS011;38766;53.194;5.532;2023-08-06T03:38:48;15.23;;;10.82;;
51556;SDS011;38766;53.194;5.532;2023-08-06T03:41:13;12.75;;;10.55;;
51556;SDS011;38766;53.194;5.532;2023-08-06T03:43:39;13.10;;;11.15;;
51556;SDS011;38766;53.194;5.532;2023-08-06T03:46:05;13.27;;;10.68;;
51556;SDS011;38766;53.194;5.532;2023-08-06T03:48:30;14.05;;;11.65;;
51556;SDS011;38766;53.194;5.532;2023-08-06T03:50:56;14.10;;;11.00;;
51556;SDS011;38766;53.194;5.532;2023-08-06T03:53:22;13.90;;;11.82;;
51556;SDS011;38766;53.194;5.532;2023-08-06T03:55:48;16.05;;;11.18;;
51556;SDS011;38766;53.194;5.532;2023-08-06T03:58:13;14.23;;;11.00;;
51556;SDS011;38766;53.194;5.532;2023-08-06T04:00:39;20.15;;;11.15;;
51556;SDS011;38766;53.194;5.532;2023-08-06T04:03:04;16.75;;;10.77;;
51556;SDS011;38766;53.194;5.532;2023-08-06T04:05:31;16.92;;;11.55;;
51556;SDS011;38766;53.194;5.532;2023-08-06T04:07:57;13.52;;;11.25;;
51556;SDS011;38766;53.194;5.532;2023-08-06T04:10:24;15.85;;;10.63;;
51556;SDS011;38766;53.194;5.532;2023-08-06T04:12:50;14.15;;;10.15;;
51556;SDS011;38766;53.194;5.532;2023-08-06T04:15:16;13.75;;;10.27;;
51556;SDS011;38766;53.194;5.532;2023-08-06T04:17:41;13.98;;;10.80;;
51556;SDS011;38766;53.194;5.532;2023-08-06T04:20:07;14.10;;;10.35;;
51556;SDS011;38766;53.194;5.532;2023-08-06T04:22:33;13.02;;;10.35;;
51556;SDS011;38766;53.194;5.532;2023-08-06T04:24:59;16.20;;;11.20;;
51556;SDS011;38766;53.194;5.532;2023-08-06T04:27:25;14.15;;;10.65;;
51556;SDS011;38766;53.194;5.532;2023-08-06T04:29:53;12.93;;;10.15;;
51556;SDS011;38766;53.194;5.532;2023-08-06T04:32:18;15.20;;;10.65;;
51556;SDS011;38766;53.194;5.532;2023-08-06T04:34:44;14.02;;;10.40;;
51556;SDS011;38766;53.194;5.532;2023-08-06T04:37:10;15.18;;;11.15;;
51556;SDS011;38766;53.194;5.532;2023-08-06T04:39:36;13.20;;;10.23;;
51556;SDS011;38766;53.194;5.532;2023-08-06T04:42:01;14.07;;;10.05;;
51556;SDS011;38766;53.194;5.532;2023-08-06T04:44:27;13.68;;;11.18;;
51556;SDS011;38766;53.194;5.532;2023-08-06T04:46:53;15.85;;;10.55;;
51556;SDS011;38766;53.194;5.532;2023-08-06T04:49:22;12.77;;;10.60;;
51556;SDS011;38766;53.194;5.532;2023-08-06T04:51:48;15.43;;;10.23;;
51556;SDS011;38766;53.194;5.532;2023-08-06T04:54:13;13.60;;;10.25;;
51556;SDS011;38766;53.194;5.532;2023-08-06T04:56:39;13.38;;;10.25;;
51556;SDS011;38766;53.194;5.532;2023-08-06T04:59:05;12.18;;;9.35;;
51556;SDS011;38766;53.194;5.532;2023-08-06T05:01:31;12.88;;;9.52;;
51556;SDS011;38766;53.194;5.532;2023-08-06T05:03:57;14.27;;;10.82;;
51556;SDS011;38766;53.194;5.532;2023-08-06T05:06:22;13.35;;;10.77;;
51556;SDS011;38766;53.194;5.532;2023-08-06T05:08:48;12.40;;;10.10;;
51556;SDS011;38766;53.194;5.532;2023-08-06T05:11:13;13.68;;;11.15;;
51556;SDS011;38766;53.194;5.532;2023-08-06T05:13:39;13.50;;;10.65;;
51556;SDS011;38766;53.194;5.532;2023-08-06T05:16:05;14.23;;;10.63;;
51556;SDS011;38766;53.194;5.532;2023-08-06T05:18:30;14.98;;;10.75;;
51556;SDS011;38766;53.194;5.532;2023-08-06T05:20:56;15.27;;;11.70;;
51556;SDS011;38766;53.194;5.532;2023-08-06T05:23:22;14.07;;;10.82;;
51556;SDS011;38766;53.194;5.532;2023-08-06T05:25:47;14.55;;;11.50;;
51556;SDS011;38766;53.194;5.532;2023-08-06T05:28:13;15.40;;;11.07;;
51556;SDS011;38766;53.194;5.532;2023-08-06T05:30:39;14.15;;;10.93;;
51556;SDS011;38766;53.194;5.532;2023-08-06T05:33:05;15.85;;;11.35;;
51556;SDS011;38766;53.194;5.532;2023-08-06T05:35:31;15.82;;;10.98;;
51556;SDS011;38766;53.194;5.532;2023-08-06T05:37:57;16.13;;;11.20;;
51556;SDS011;38766;53.194;5.532;2023-08-06T05:40:22;15.52;;;10.35;;
51556;SDS011;38766;53.194;5.532;2023-08-06T05:42:50;14.32;;;10.63;;
51556;SDS011;38766;53.194;5.532;2023-08-06T05:45:16;12.35;;;10.43;;
51556;SDS011;38766;53.194;5.532;2023-08-06T05:47:42;12.38;;;10.93;;
51556;SDS011;38766;53.194;5.532;2023-08-06T05:50:08;13.57;;;11.02;;
51556;SDS011;38766;53.194;5.532;2023-08-06T05:52:34;12.32;;;10.15;;
51556;SDS011;38766;53.194;5.532;2023-08-06T05:55:02;15.35;;;11.32;;
51556;SDS011;38766;53.194;5.532;2023-08-06T05:57:28;13.55;;;10.38;;
51556;SDS011;38766;53.194;5.532;2023-08-06T05:59:54;17.45;;;10.63;;
51556;SDS011;38766;53.194;5.532;2023-08-06T06:02:19;14.50;;;10.57;;
51556;SDS011;38766;53.194;5.532;2023-08-06T06:04:45;13.35;;;11.13;;
51556;SDS011;38766;53.194;5.532;2023-08-06T06:07:11;16.67;;;10.85;;
51556;SDS011;38766;53.194;5.532;2023-08-06T06:09:36;16.25;;;11.60;;
51556;SDS011;38766;53.194;5.532;2023-08-06T06:12:02;15.07;;;11.15;;
51556;SDS011;38766;53.194;5.532;2023-08-06T06:14:28;17.02;;;10.88;;
51556;SDS011;38766;53.194;5.532;2023-08-06T06:16:54;17.42;;;11.07;;
51556;SDS011;38766;53.194;5.532;2023-08-06T06:19:19;15.20;;;11.68;;
51556;SDS011;38766;53.194;5.532;2023-08-06T06:21:45;14.43;;;10.95;;
51556;SDS011;38766;53.194;5.532;2023-08-06T06:24:12;15.43;;;11.40;;
51556;SDS011;38766;53.194;5.532;2023-08-06T06:26:38;15.55;;;11.15;;
51556;SDS011;38766;53.194;5.532;2023-08-06T06:29:03;14.70;;;11.70;;
51556;SDS011;38766;53.194;5.532;2023-08-06T06:31:29;14.90;;;11.65;;
51556;SDS011;38766;53.194;5.532;2023-08-06T06:33:55;13.65;;;11.40;;
51556;SDS011;38766;53.194;5.532;2023-08-06T06:36:20;16.02;;;11.15;;
51556;SDS011;38766;53.194;5.532;2023-08-06T06:38:46;12.75;;;10.93;;
51556;SDS011;38766;53.194;5.532;2023-08-06T06:41:14;17.85;;;12.30;;
51556;SDS011;38766;53.194;5.532;2023-08-06T06:43:39;16.02;;;11.98;;
51556;SDS011;38766;53.194;5.532;2023-08-06T06:46:05;13.85;;;10.95;;
51556;SDS011;38766;53.194;5.532;2023-08-06T06:48:31;14.02;;;11.02;;
51556;SDS011;38766;53.194;5.532;2023-08-06T06:50:58;15.23;;;11.48;;
51556;SDS011;38766;53.194;5.532;2023-08-06T06:53:24;17.52;;;10.93;;
51556;SDS011;38766;53.194;5.532;2023-08-06T06:55:53;15.85;;;10.98;;
51556;SDS011;38766;53.194;5.532;2023-08-06T06:58:29;14.90;;;11.55;;
51556;SDS011;38766;53.194;5.532;2023-08-06T07:00:55;13.52;;;11.55;;
51556;SDS011;38766;53.194;5.532;2023-08-06T07:03:21;15.88;;;11.32;;
51556;SDS011;38766;53.194;5.532;2023-08-06T07:05:47;13.57;;;11.88;;
51556;SDS011;38766;53.194;5.532;2023-08-06T07:08:12;12.32;;;10.95;;
51556;SDS011;38766;53.194;5.532;2023-08-06T07:10:38;12.23;;;10.73;;
51556;SDS011;38766;53.194;5.532;2023-08-06T07:13:05;13.23;;;10.90;;
51556;SDS011;38766;53.194;5.532;2023-08-06T07:15:31;12.75;;;11.07;;
51556;SDS011;38766;53.194;5.532;2023-08-06T07:17:57;14.95;;;11.25;;
51556;SDS011;38766;53.194;5.532;2023-08-06T07:20:23;12.35;;;10.60;;
51556;SDS011;38766;53.194;5.532;2023-08-06T07:22:48;14.48;;;12.20;;
51556;SDS011;38766;53.194;5.532;2023-08-06T07:25:15;13.13;;;10.57;;
51556;SDS011;38766;53.194;5.532;2023-08-06T07:27:41;14.38;;;10.77;;
51556;SDS011;38766;53.194;5.532;2023-08-06T07:30:07;12.90;;;11.32;;
51556;SDS011;38766;53.194;5.532;2023-08-06T07:32:33;15.82;;;10.93;;
51556;SDS011;38766;53.194;5.532;2023-08-06T07:34:59;12.13;;;10.48;;
51556;SDS011;38766;53.194;5.532;2023-08-06T07:37:28;12.82;;;10.90;;
51556;SDS011;38766;53.194;5.532;2023-08-06T07:39:55;14.93;;;11.27;;
51556;SDS011;38766;53.194;5.532;2023-08-06T07:42:21;14.55;;;11.15;;
51556;SDS011;38766;53.194;5.532;2023-08-06T07:44:51;12.32;;;9.90;;
51556;SDS011;38766;53.194;5.532;2023-08-06T07:47:18;13.43;;;11.30;;
51556;SDS011;38766;53.194;5.532;2023-08-06T07:49:44;14.05;;;10.63;;
51556;SDS011;38766;53.194;5.532;2023-08-06T07:52:10;14.82;;;10.48;;
51556;SDS011;38766;53.194;5.532;2023-08-06T07:54:36;15.07;;;10.38;;
51556;SDS011;38766;53.194;5.532;2023-08-06T07:57:02;13.63;;;10.43;;
51556;SDS011;38766;53.194;5.532;2023-08-06T07:59:27;11.73;;;9.70;;
51556;SDS011;38766;53.194;5.532;2023-08-06T08:01:53;11.40;;;10.07;;
51556;SDS011;38766;53.194;5.532;2023-08-06T08:04:19;12.35;;;10.63;;
51556;SDS011;38766;53.194;5.532;2023-08-06T08:06:46;11.60;;;10.13;;
51556;SDS011;38766;53.194;5.532;2023-08-06T08:09:12;13.82;;;9.75;;
51556;SDS011;38766;53.194;5.532;2023-08-06T08:11:39;11.15;;;8.88;;
51556;SDS011;38766;53.194;5.532;2023-08-06T08:14:05;11.27;;;8.57;;
51556;SDS011;38766;53.194;5.532;2023-08-06T08:16:30;11.70;;;8.85;;
51556;SDS011;38766;53.194;5.532;2023-08-06T08:18:56;10.32;;;8.88;;
51556;SDS011;38766;53.194;5.532;2023-08-06T08:21:22;10.55;;;8.27;;
51556;SDS011;38766;53.194;5.532;2023-08-06T08:23:49;9.75;;;7.40;;
51556;SDS011;38766;53.194;5.532;2023-08-06T08:26:15;11.38;;;8.02;;
51556;SDS011;38766;53.194;5.532;2023-08-06T08:28:41;10.95;;;8.23;;
51556;SDS011;38766;53.194;5.532;2023-08-06T08:31:10;12.00;;;8.18;;
51556;SDS011;38766;53.194;5.532;2023-08-06T08:33:39;11.30;;;8.02;;
51556;SDS011;38766;53.194;5.532;2023-08-06T08:36:04;10.68;;;7.57;;
51556;SDS011;38766;53.194;5.532;2023-08-06T08:38:30;8.57;;;7.68;;
51556;SDS011;38766;53.194;5.532;2023-08-06T08:40:56;10.50;;;8.63;;
51556;SDS011;38766;53.194;5.532;2023-08-06T08:43:22;8.00;;;6.60;;
51556;SDS011;38766;53.194;5.532;2023-08-06T08:45:49;8.13;;;7.10;;
51556;SDS011;38766;53.194;5.532;2023-08-06T08:48:16;8.57;;;6.95;;
51556;SDS011;38766;53.194;5.532;2023-08-06T08:50:43;7.68;;;6.15;;
51556;SDS011;38766;53.194;5.532;2023-08-06T08:53:10;8.02;;;6.63;;
51556;SDS011;38766;53.194;5.532;2023-08-06T08:55:38;8.30;;;6.43;;
51556;SDS011;38766;53.194;5.532;2023-08-06T08:58:04;8.18;;;6.30;;
51556;SDS011;38766;53.194;5.532;2023-08-06T09:00:30;8.73;;;6.57;;
51556;SDS011;38766;53.194;5.532;2023-08-06T09:02:56;6.63;;;5.60;;
51556;SDS011;38766;53.194;5.532;2023-08-06T09:05:24;6.97;;;5.93;;
51556;SDS011;38766;53.194;5.532;2023-08-06T09:07:54;7.65;;;5.63;;
51556;SDS011;38766;53.194;5.532;2023-08-06T09:10:21;7.55;;;6.30;;
51556;SDS011;38766;53.194;5.532;2023-08-06T09:12:50;5.60;;;5.00;;
51556;SDS011;38766;53.194;5.532;2023-08-06T09:15:18;6.63;;;5.00;;
51556;SDS011;38766;53.194;5.532;2023-08-06T09:17:43;7.10;;;5.45;;
51556;SDS011;38766;53.194;5.532;2023-08-06T09:20:10;7.13;;;4.82;;
51556;SDS011;38766;53.194;5.532;2023-08-06T09:22:39;6.82;;;4.40;;
51556;SDS011;38766;53.194;5.532;2023-08-06T09:25:06;6.18;;;4.10;;
51556;SDS011;38766;53.194;5.532;2023-08-06T09:27:38;6.85;;;4.20;;
51556;SDS011;38766;53.194;5.532;2023-08-06T09:30:04;4.38;;;3.90;;
51556;SDS011;38766;53.194;5.532;2023-08-06T09:32:44;5.15;;;4.05;;
51556;SDS011;38766;53.194;5.532;2023-08-06T09:35:15;5.53;;;3.63;;
51556;SDS011;38766;53.194;5.532;2023-08-06T09:37:42;4.57;;;3.25;;
51556;SDS011;38766;53.194;5.532;2023-08-06T09:40:27;4.65;;;3.50;;
51556;SDS011;38766;53.194;5.532;2023-08-06T09:42:56;5.38;;;3.50;;
51556;SDS011;38766;53.194;5.532;2023-08-06T09:45:22;4.32;;;3.20;;
51556;SDS011;38766;53.194;5.532;2023-08-06T09:47:56;5.53;;;3.17;;
51556;SDS011;38766;53.194;5.532;2023-08-06T09:50:22;3.30;;;2.85;;
51556;SDS011;38766;53.194;5.532;2023-08-06T09:52:50;3.15;;;2.80;;
51556;SDS011;38766;53.194;5.532;2023-08-06T09:55:17;4.13;;;2.83;;
51556;SDS011;38766;53.194;5.532;2023-08-06T09:57:43;6.28;;;3.13;;
51556;SDS011;38766;53.194;5.532;2023-08-06T10:00:09;5.07;;;3.72;;
51556;SDS011;38766;53.194;5.532;2023-08-06T10:02:37;3.63;;;3.30;;
51556;SDS011;38766;53.194;5.532;2023-08-06T10:05:04;4.57;;;3.10;;
51556;SDS011;38766;53.194;5.532;2023-08-06T10:07:30;4.78;;;3.50;;
51556;SDS011;38766;53.194;5.532;2023-08-06T10:09:56;6.57;;;3.38;;
51556;SDS011;38766;53.194;5.532;2023-08-06T10:12:23;5.85;;;2.78;;
51556;SDS011;38766;53.194;5.532;2023-08-06T10:14:51;3.30;;;2.85;;
51556;SDS011;38766;53.194;5.532;2023-08-06T10:17:20;3.90;;;2.70;;
51556;SDS011;38766;53.194;5.532;2023-08-06T10:19:47;3.15;;;2.83;;
51556;SDS011;38766;53.194;5.532;2023-08-06T10:22:15;5.22;;;3.63;;
51556;SDS011;38766;53.194;5.532;2023-08-06T10:24:56;5.55;;;3.38;;
51556;SDS011;38766;53.194;5.532;2023-08-06T10:27:30;4.88;;;3.05;;
51556;SDS011;38766;53.194;5.532;2023-08-06T10:32:53;5.07;;;2.92;;
51556;SDS011;38766;53.194;5.532;2023-08-06T10:38:15;5.13;;;3.10;;
51556;SDS011;38766;53.194;5.532;2023-08-06T10:43:27;5.43;;;3.45;;
51556;SDS011;38766;53.194;5.532;2023-08-06T10:46:09;5.05;;;3.10;;
51556;SDS011;38766;53.194;5.532;2023-08-06T10:48:45;4.65;;;3.47;;
51556;SDS011;38766;53.194;5.532;2023-08-06T10:53:44;2.97;;;2.75;;
51556;SDS011;38766;53.194;5.532;2023-08-06T10:58:40;4.10;;;3.55;;
51556;SDS011;38766;53.194;5.532;2023-08-06T11:01:07;6.72;;;3.85;;
51556;SDS011;38766;53.194;5.532;2023-08-06T11:03:33;4.13;;;3.30;;
51556;SDS011;38766;53.194;5.532;2023-08-06T11:05:59;5.40;;;3.60;;
51556;SDS011;38766;53.194;5.532;2023-08-06T11:10:52;8.10;;;4.15;;
51556;SDS011;38766;53.194;5.532;2023-08-06T11:13:18;6.88;;;4.40;;
51556;SDS011;38766;53.194;5.532;2023-08-06T11:15:45;7.75;;;4.43;;
51556;SDS011;38766;53.194;5.532;2023-08-06T11:18:10;3.85;;;3.38;;
51556;SDS011;38766;53.194;5.532;2023-08-06T11:20:36;4.22;;;3.83;;
51556;SDS011;38766;53.194;5.532;2023-08-06T11:23:03;5.22;;;3.70;;
51556;SDS011;38766;53.194;5.532;2023-08-06T11:25:29;7.43;;;3.75;;
51556;SDS011;38766;53.194;5.532;2023-08-06T11:27:55;4.63;;;3.38;;
51556;SDS011;38766;53.194;5.532;2023-08-06T11:30:21;4.75;;;3.40;;
51556;SDS011;38766;53.194;5.532;2023-08-06T11:32:47;4.43;;;3.70;;
51556;SDS011;38766;53.194;5.532;2023-08-06T11:35:13;4.90;;;3.13;;
51556;SDS011;38766;53.194;5.532;2023-08-06T11:37:42;4.10;;;3.55;;
51556;SDS011;38766;53.194;5.532;2023-08-06T11:40:10;5.70;;;3.03;;
51556;SDS011;38766;53.194;5.532;2023-08-06T11:42:38;3.85;;;3.28;;
51556;SDS011;38766;53.194;5.532;2023-08-06T11:45:04;4.70;;;3.63;;
51556;SDS011;38766;53.194;5.532;2023-08-06T11:47:30;3.97;;;3.20;;
51556;SDS011;38766;53.194;5.532;2023-08-06T11:49:57;4.82;;;3.60;;
51556;SDS011;38766;53.194;5.532;2023-08-06T11:52:23;6.38;;;3.40;;
51556;SDS011;38766;53.194;5.532;2023-08-06T11:55:00;3.53;;;3.20;;
51556;SDS011;38766;53.194;5.532;2023-08-06T11:57:31;6.07;;;3.47;;
51556;SDS011;38766;53.194;5.532;2023-08-06T12:00:03;3.63;;;3.10;;
51556;SDS011;38766;53.194;5.532;2023-08-06T12:02:33;4.57;;;2.80;;
51556;SDS011;38766;53.194;5.532;2023-08-06T12:07:37;3.53;;;2.85;;
51556;SDS011;38766;53.194;5.532;2023-08-06T12:10:06;6.40;;;3.13;;
51556;SDS011;38766;53.194;5.532;2023-08-06T12:12:32;3.28;;;2.92;;
51556;SDS011;38766;53.194;5.532;2023-08-06T12:14:59;4.43;;;2.95;;
51556;SDS011;38766;53.194;5.532;2023-08-06T12:17:25;3.33;;;2.75;;
51556;SDS011;38766;53.194;5.532;2023-08-06T12:19:51;4.80;;;3.00;;
51556;SDS011;38766;53.194;5.532;2023-08-06T12:22:16;8.27;;;3.22;;
51556;SDS011;38766;53.194;5.532;2023-08-06T12:24:43;5.57;;;2.75;;
51556;SDS011;38766;53.194;5.532;2023-08-06T12:27:11;6.35;;;2.90;;
51556;SDS011;38766;53.194;5.532;2023-08-06T12:29:37;5.38;;;2.78;;
51556;SDS011;38766;53.194;5.532;2023-08-06T12:32:07;5.32;;;2.55;;
51556;SDS011;38766;53.194;5.532;2023-08-06T12:34:33;2.53;;;2.05;;
51556;SDS011;38766;53.194;5.532;2023-08-06T12:36:59;3.38;;;2.50;;
51556;SDS011;38766;53.194;5.532;2023-08-06T12:39:25;2.63;;;2.20;;
51556;SDS011;38766;53.194;5.532;2023-08-06T12:41:53;2.72;;;2.10;;
51556;SDS011;38766;53.194;5.532;2023-08-06T12:44:20;3.05;;;1.90;;
51556;SDS011;38766;53.194;5.532;2023-08-06T12:46:45;7.68;;;2.50;;
51556;SDS011;38766;53.194;5.532;2023-08-06T12:49:11;2.40;;;1.65;;
51556;SDS011;38766;53.194;5.532;2023-08-06T12:51:37;3.15;;;2.10;;
51556;SDS011;38766;53.194;5.532;2023-08-06T12:54:03;3.45;;;2.13;;
51556;SDS011;38766;53.194;5.532;2023-08-06T12:56:29;2.38;;;2.05;;
51556;SDS011;38766;53.194;5.532;2023-08-06T12:58:54;6.15;;;2.50;;
51556;SDS011;38766;53.194;5.532;2023-08-06T13:01:20;3.53;;;2.35;;
51556;SDS011;38766;53.194;5.532;2023-08-06T13:03:45;3.95;;;2.30;;
51556;SDS011;38766;53.194;5.532;2023-08-06T13:06:11;2.50;;;2.15;;
51556;SDS011;38766;53.194;5.532;2023-08-06T13:08:37;2.67;;;2.13;;
51556;SDS011;38766;53.194;5.532;2023-08-06T13:11:03;5.55;;;2.38;;
51556;SDS011;38766;53.194;5.532;2023-08-06T13:13:29;2.90;;;2.22;;
51556;SDS011;38766;53.194;5.532;2023-08-06T13:15:55;3.50;;;2.20;;
51556;SDS011;38766;53.194;5.532;2023-08-06T13:18:21;2.67;;;2.05;;
51556;SDS011;38766;53.194;5.532;2023-08-06T13:20:47;4.03;;;2.17;;
51556;SDS011;38766;53.194;5.532;2023-08-06T13:23:14;2.88;;;1.92;;
51556;SDS011;38766;53.194;5.532;2023-08-06T13:25:41;2.83;;;1.92;;
51556;SDS011;38766;53.194;5.532;2023-08-06T13:28:07;3.05;;;2.00;;
51556;SDS011;38766;53.194;5.532;2023-08-06T13:30:33;3.85;;;1.90;;
51556;SDS011;38766;53.194;5.532;2023-08-06T13:33:06;3.28;;;2.03;;
51556;SDS011;38766;53.194;5.532;2023-08-06T13:35:32;4.28;;;2.53;;
51556;SDS011;38766;53.194;5.532;2023-08-06T13:37:58;4.53;;;2.50;;
51556;SDS011;38766;53.194;5.532;2023-08-06T13:40:24;2.83;;;2.45;;
51556;SDS011;38766;53.194;5.532;2023-08-06T13:42:49;5.20;;;2.28;;
51556;SDS011;38766;53.194;5.532;2023-08-06T13:45:15;3.08;;;2.28;;
51556;SDS011;38766;53.194;5.532;2023-08-06T13:47:41;2.85;;;2.38;;
51556;SDS011;38766;53.194;5.532;2023-08-06T13:50:07;3.67;;;2.50;;
51556;SDS011;38766;53.194;5.532;2023-08-06T13:52:33;3.13;;;2.00;;
51556;SDS011;38766;53.194;5.532;2023-08-06T13:55:00;3.75;;;2.13;;
51556;SDS011;38766;53.194;5.532;2023-08-06T13:57:27;3.30;;;2.50;;
51556;SDS011;38766;53.194;5.532;2023-08-06T13:59:52;2.92;;;2.60;;
51556;SDS011;38766;53.194;5.532;2023-08-06T14:02:18;2.55;;;2.20;;
51556;SDS011;38766;53.194;5.532;2023-08-06T14:04:43;5.13;;;2.08;;
51556;SDS011;38766;53.194;5.532;2023-08-06T14:07:09;2.33;;;1.90;;
51556;SDS011;38766;53.194;5.532;2023-08-06T14:09:35;3.72;;;2.13;;
51556;SDS011;38766;53.194;5.532;2023-08-06T14:12:01;3.38;;;2.20;;
51556;SDS011;38766;53.194;5.532;2023-08-06T14:14:26;2.28;;;2.08;;
51556;SDS011;38766;53.194;5.532;2023-08-06T14:16:52;3.83;;;2.10;;
51556;SDS011;38766;53.194;5.532;2023-08-06T14:19:19;2.83;;;2.30;;
51556;SDS011;38766;53.194;5.532;2023-08-06T14:21:45;3.42;;;2.22;;
51556;SDS011;38766;53.194;5.532;2023-08-06T14:24:11;3.83;;;1.90;;
51556;SDS011;38766;53.194;5.532;2023-08-06T14:26:37;2.47;;;2.28;;
51556;SDS011;38766;53.194;5.532;2023-08-06T14:29:03;2.47;;;2.00;;
51556;SDS011;38766;53.194;5.532;2023-08-06T14:31:28;3.15;;;2.15;;
51556;SDS011;38766;53.194;5.532;2023-08-06T14:33:54;2.35;;;1.90;;
51556;SDS011;38766;53.194;5.532;2023-08-06T14:36:20;3.10;;;2.13;;
51556;SDS011;38766;53.194;5.532;2023-08-06T14:38:45;3.00;;;2.20;;
51556;SDS011;38766;53.194;5.532;2023-08-06T14:41:11;2.72;;;2.40;;
51556;SDS011;38766;53.194;5.532;2023-08-06T14:43:37;2.88;;;2.38;;
51556;SDS011;38766;53.194;5.532;2023-08-06T14:46:02;3.00;;;2.70;;
51556;SDS011;38766;53.194;5.532;2023-08-06T14:48:28;3.13;;;2.42;;
51556;SDS011;38766;53.194;5.532;2023-08-06T14:50:55;3.42;;;1.98;;
51556;SDS011;38766;53.194;5.532;2023-08-06T14:53:21;4.05;;;2.25;;
51556;SDS011;38766;53.194;5.532;2023-08-06T14:55:46;2.47;;;2.25;;
51556;SDS011;38766;53.194;5.532;2023-08-06T14:58:12;4.47;;;2.13;;
51556;SDS011;38766;53.194;5.532;2023-08-06T15:00:38;3.78;;;2.28;;
51556;SDS011;38766;53.194;5.532;2023-08-06T15:03:03;3.03;;;1.83;;